createdAt,value
2023-02-02T00:01:45.972Z,8.67
2023-02-02T00:04:19.337Z,7.47
2023-02-02T00:06:48.316Z,5.77
2023-02-02T00:09:18.937Z,6.33
2023-02-02T00:11:50.377Z,7.10
2023-02-02T00:14:19.350Z,7.67
2023-02-02T00:16:49.144Z,6.20
2023-02-02T00:19:22.516Z,6.77
2023-02-02T00:21:51.071Z,7.97
2023-02-02T00:24:20.348Z,9.10
2023-02-02T00:26:51.360Z,9.13
2023-02-02T00:29:23.639Z,8.83
2023-02-02T00:31:53.320Z,8.13
2023-02-02T00:34:24.491Z,7.10
2023-02-02T00:36:53.490Z,7.90
2023-02-02T00:39:26.288Z,7.53
2023-02-02T00:41:55.595Z,8.77
2023-02-02T00:44:41.568Z,7.60
2023-02-02T00:47:10.148Z,7.17
2023-02-02T00:49:39.928Z,9.27
2023-02-02T00:52:09.079Z,8.63
2023-02-02T00:54:37.468Z,7.63
2023-02-02T00:57:06.014Z,8.23
2023-02-02T00:59:34.451Z,8.17
2023-02-02T01:02:03.094Z,6.97
2023-02-02T01:04:31.637Z,9.20
2023-02-02T01:07:01.505Z,7.43
2023-02-02T01:09:29.857Z,8.67
2023-02-02T01:11:58.174Z,8.20
2023-02-02T01:14:26.914Z,6.90
2023-02-02T01:16:55.234Z,8.37
2023-02-02T01:19:23.662Z,6.63
2023-02-02T01:21:52.259Z,6.70
2023-02-02T01:24:21.919Z,9.03
2023-02-02T01:26:50.299Z,5.80
2023-02-02T01:29:18.702Z,6.83
2023-02-02T01:31:47.222Z,7.23
2023-02-02T01:34:15.609Z,6.13
2023-02-02T01:36:43.938Z,6.30
2023-02-02T01:39:12.249Z,7.57
2023-02-02T01:41:42.969Z,6.23
2023-02-02T01:45:14.633Z,9.33
2023-02-02T01:47:47.457Z,6.27
2023-02-02T01:50:18.467Z,7.27
2023-02-02T01:52:51.040Z,7.77
2023-02-02T01:55:25.773Z,6.97
2023-02-02T01:58:01.797Z,7.73
2023-02-02T02:00:30.355Z,7.30
2023-02-02T02:03:03.584Z,6.27
2023-02-02T02:05:36.468Z,8.20
2023-02-02T02:08:19.152Z,7.43
2023-02-02T02:10:47.965Z,7.30
2023-02-02T02:13:18.894Z,6.30
2023-02-02T02:16:15.283Z,7.40
2023-02-02T02:19:02.524Z,8.30
2023-02-02T02:22:09.300Z,8.93
2023-02-02T02:25:36.941Z,6.43
2023-02-02T02:29:00.768Z,7.87
2023-02-02T02:32:06.023Z,7.83
2023-02-02T02:34:52.574Z,5.70
2023-02-02T02:37:31.943Z,5.43
2023-02-02T02:40:09.246Z,7.40
2023-02-02T02:42:45.972Z,6.33
2023-02-02T02:45:14.929Z,4.80
2023-02-02T02:47:45.983Z,4.63
2023-02-02T02:50:14.492Z,4.50
2023-02-02T02:52:43.180Z,5.20
2023-02-02T02:55:13.132Z,4.23
2023-02-02T02:58:04.804Z,5.43
2023-02-02T03:00:48.722Z,6.57
2023-02-02T03:03:34.660Z,5.50
2023-02-02T03:06:13.568Z,6.83
2023-02-02T03:08:47.409Z,9.57
2023-02-02T03:11:17.543Z,8.07
2023-02-02T03:13:46.560Z,9.37
2023-02-02T03:16:17.765Z,7.97
2023-02-02T03:18:47.602Z,7.93
2023-02-02T03:21:15.945Z,6.50
2023-02-02T03:23:44.251Z,6.23
2023-02-02T03:26:12.676Z,8.87
2023-02-02T03:30:48.329Z,9.80
2023-02-02T03:33:18.679Z,8.80
2023-02-02T03:35:47.449Z,10.00
2023-02-02T03:38:15.903Z,8.60
2023-02-02T03:40:44.269Z,10.43
2023-02-02T03:43:12.780Z,10.63
2023-02-02T03:45:41.573Z,10.50
2023-02-02T03:48:11.414Z,9.47
2023-02-02T03:50:39.971Z,8.80
2023-02-02T03:53:08.296Z,11.07
2023-02-02T03:55:38.747Z,7.97
2023-02-02T03:58:07.197Z,6.03
2023-02-02T04:00:35.633Z,13.23
2023-02-02T04:03:04.101Z,9.33
2023-02-02T04:05:34.134Z,8.13
2023-02-02T04:08:02.472Z,9.70
2023-02-02T04:10:30.947Z,6.70
2023-02-02T04:12:59.348Z,6.63
2023-02-02T04:15:27.915Z,7.47
2023-02-02T04:17:56.334Z,11.57
2023-02-02T04:20:24.745Z,8.33
2023-02-02T04:22:55.853Z,7.97
2023-02-02T04:25:24.493Z,12.00
2023-02-02T04:27:53.042Z,9.43
2023-02-02T04:30:21.628Z,7.20
2023-02-02T04:32:51.937Z,7.63
2023-02-02T04:35:20.367Z,6.57
2023-02-02T04:37:48.738Z,10.00
2023-02-02T04:40:18.700Z,10.57
2023-02-02T04:42:47.101Z,8.77
2023-02-02T04:45:15.726Z,10.57
2023-02-02T04:47:44.173Z,12.30
2023-02-02T04:50:13.267Z,11.03
2023-02-02T04:52:41.724Z,8.67
2023-02-02T04:55:10.817Z,9.23
2023-02-02T04:57:40.624Z,9.13
2023-02-02T05:00:11.521Z,14.33
2023-02-02T05:02:41.598Z,9.27
2023-02-02T05:05:14.374Z,10.93
2023-02-02T05:07:42.850Z,9.93
2023-02-02T05:10:13.199Z,9.53
2023-02-02T05:12:43.041Z,7.97
2023-02-02T05:15:12.863Z,9.40
2023-02-02T05:17:41.390Z,10.93
2023-02-02T05:20:11.565Z,12.27
2023-02-02T05:22:40.526Z,8.70
2023-02-02T05:25:09.878Z,8.43
2023-02-02T05:27:38.544Z,9.00
2023-02-02T05:30:11.617Z,11.50
2023-02-02T05:32:40.061Z,7.93
2023-02-02T05:35:10.940Z,10.13
2023-02-02T05:37:39.394Z,10.13
2023-02-02T05:40:09.253Z,9.63
2023-02-02T05:42:37.655Z,13.83
2023-02-02T05:45:08.799Z,7.33
2023-02-02T05:47:37.204Z,7.80
2023-02-02T05:50:06.506Z,7.83
2023-02-02T05:52:37.016Z,11.67
2023-02-02T05:55:06.027Z,5.37
2023-02-02T05:57:34.466Z,8.50
2023-02-02T06:00:03.141Z,9.73
2023-02-02T06:02:33.152Z,8.60
2023-02-02T06:05:01.635Z,11.20
2023-02-02T06:07:30.077Z,14.67
2023-02-02T06:09:58.427Z,8.20
2023-02-02T06:12:26.871Z,7.03
2023-02-02T06:14:55.266Z,8.50
2023-02-02T06:17:23.833Z,9.97
2023-02-02T06:19:53.619Z,8.03
2023-02-02T06:22:22.042Z,11.77
2023-02-02T06:24:50.411Z,8.83
2023-02-02T06:27:18.788Z,8.93
2023-02-02T06:29:47.181Z,13.50
2023-02-02T06:32:15.572Z,9.23
2023-02-02T06:34:43.938Z,6.80
2023-02-02T06:37:13.707Z,8.10
2023-02-02T06:39:42.240Z,4.67
2023-02-02T06:42:20.774Z,6.73
2023-02-02T06:44:50.256Z,7.23
2023-02-02T06:47:18.742Z,12.93
2023-02-02T06:49:47.133Z,7.53
2023-02-02T06:52:16.875Z,5.83
2023-02-02T06:54:45.199Z,7.70
2023-02-02T06:57:13.548Z,8.77
2023-02-02T06:59:42.052Z,6.63
2023-02-02T07:02:13.533Z,4.47
2023-02-02T07:04:41.915Z,6.97
2023-02-02T07:07:10.248Z,6.80
2023-02-02T07:09:39.950Z,4.67
2023-02-02T07:12:08.526Z,4.30
2023-02-02T07:14:36.911Z,5.17
2023-02-02T07:17:05.479Z,4.23
2023-02-02T07:19:33.833Z,5.43
2023-02-02T07:22:02.174Z,5.37
2023-02-02T07:24:30.799Z,5.27
2023-02-02T07:27:00.655Z,7.70
2023-02-02T07:29:29.230Z,6.80
2023-02-02T07:31:57.729Z,6.07
2023-02-02T07:34:26.754Z,10.73
2023-02-02T07:36:55.205Z,6.63
2023-02-02T07:39:23.576Z,7.30
2023-02-02T07:41:51.987Z,6.30
2023-02-02T07:44:21.870Z,5.03
2023-02-02T07:46:50.418Z,5.87
2023-02-02T07:49:20.475Z,8.03
2023-02-02T07:51:49.388Z,6.97
2023-02-02T07:54:17.918Z,4.67
2023-02-02T07:56:46.439Z,7.97
2023-02-02T07:59:15.039Z,6.20
2023-02-02T08:01:45.048Z,4.07
2023-02-02T08:04:13.570Z,4.63
2023-02-02T08:06:42.161Z,5.43
2023-02-02T08:09:11.521Z,5.53
2023-02-02T08:11:40.455Z,4.23
2023-02-02T08:14:09.203Z,6.50
2023-02-02T08:16:37.711Z,5.80
2023-02-02T08:19:07.594Z,4.87
2023-02-02T08:21:36.442Z,5.30
2023-02-02T08:24:06.161Z,3.57
2023-02-02T08:26:35.305Z,4.97
2023-02-02T08:29:07.528Z,4.53
2023-02-02T08:31:39.422Z,6.18
2023-02-02T08:34:09.379Z,4.13
2023-02-02T08:36:38.142Z,1.83
2023-02-02T08:39:09.365Z,2.57
2023-02-02T08:41:38.104Z,3.50
2023-02-02T08:44:10.962Z,3.73
2023-02-02T08:46:39.894Z,5.80
2023-02-02T08:49:12.901Z,4.53
2023-02-02T08:51:41.784Z,4.33
2023-02-02T08:54:11.748Z,2.50
2023-02-02T08:56:40.413Z,5.33
2023-02-02T08:59:08.858Z,2.90
2023-02-02T09:01:37.797Z,4.57
2023-02-02T09:04:08.950Z,3.50
2023-02-02T09:06:41.220Z,3.13
2023-02-02T09:09:14.853Z,4.10
2023-02-02T09:11:44.692Z,4.63
2023-02-02T09:14:15.164Z,4.37
2023-02-02T09:16:43.662Z,3.03
2023-02-02T09:19:13.068Z,3.07
2023-02-02T09:21:45.263Z,4.07
2023-02-02T09:24:15.140Z,5.73
2023-02-02T09:26:45.892Z,3.67
2023-02-02T09:29:17.927Z,6.00
2023-02-02T09:31:47.079Z,4.27
2023-02-02T09:34:16.998Z,5.57
2023-02-02T09:36:47.603Z,4.00
2023-02-02T09:39:16.911Z,4.97
2023-02-02T09:42:42.150Z,3.27
2023-02-02T09:45:20.795Z,4.57
2023-02-02T09:47:56.307Z,4.63
2023-02-02T09:50:43.718Z,6.73
2023-02-02T09:53:31.222Z,6.07
2023-02-02T09:56:05.661Z,5.60
2023-02-02T09:58:38.050Z,4.13
2023-02-02T10:01:13.651Z,9.50
2023-02-02T10:03:51.237Z,5.20
2023-02-02T10:06:33.930Z,5.27
2023-02-02T10:09:22.710Z,4.73
2023-02-02T10:11:56.197Z,5.83
2023-02-02T10:14:30.445Z,8.03
2023-02-02T10:17:12.893Z,4.33
2023-02-02T10:19:43.806Z,4.20
2023-02-02T10:22:19.267Z,4.00
2023-02-02T10:24:49.035Z,5.37
2023-02-02T10:27:25.887Z,3.10
2023-02-02T10:29:59.781Z,4.20
2023-02-02T10:32:35.299Z,4.23
2023-02-02T10:35:29.993Z,4.40
2023-02-02T10:38:04.156Z,2.53
2023-02-02T10:40:48.769Z,3.80
2023-02-02T10:43:48.012Z,3.97
2023-02-02T10:46:23.601Z,3.70
2023-02-02T10:48:56.407Z,5.30
2023-02-02T10:51:29.415Z,5.17
2023-02-02T10:54:01.695Z,3.63
2023-02-02T10:56:38.741Z,3.37
2023-02-02T10:59:12.590Z,3.27
2023-02-02T11:01:41.246Z,4.13
2023-02-02T11:04:29.297Z,2.13
2023-02-02T11:07:00.449Z,3.37
2023-02-02T11:09:34.167Z,4.83
2023-02-02T11:12:14.868Z,3.33
2023-02-02T11:14:50.854Z,2.80
2023-02-02T11:17:23.455Z,3.17
2023-02-02T11:19:54.512Z,2.30
2023-02-02T11:22:32.401Z,2.80
2023-02-02T11:25:03.727Z,3.07
2023-02-02T11:27:40.052Z,3.03
2023-02-02T11:30:23.204Z,3.13
2023-02-02T11:32:51.768Z,3.60
2023-02-02T11:35:23.699Z,3.30
2023-02-02T11:37:59.269Z,3.63
2023-02-02T11:40:36.144Z,5.10
2023-02-02T11:43:16.369Z,4.73
2023-02-02T11:45:49.668Z,3.77
2023-02-02T11:48:21.390Z,6.20
2023-02-02T11:50:52.170Z,4.23
2023-02-02T11:53:33.073Z,4.93
2023-02-02T11:56:05.774Z,5.03
2023-02-02T11:58:47.575Z,8.00
2023-02-02T12:01:26.930Z,5.20
2023-02-02T12:03:58.417Z,6.03
2023-02-02T12:06:35.428Z,6.30
2023-02-02T12:09:13.558Z,6.20
2023-02-02T12:11:57.216Z,6.23
2023-02-02T12:14:39.125Z,9.17
2023-02-02T12:17:29.075Z,6.30
2023-02-02T12:20:24.715Z,6.17
2023-02-02T12:23:09.003Z,8.83
2023-02-02T12:26:05.130Z,8.07
2023-02-02T12:28:54.829Z,8.30
2023-02-02T12:31:35.155Z,8.77
2023-02-02T12:34:14.112Z,12.17
2023-02-02T12:36:55.078Z,11.30
2023-02-02T12:39:34.378Z,10.80
2023-02-02T12:42:42.427Z,7.23
2023-02-02T12:45:39.319Z,6.70
2023-02-02T12:48:26.701Z,9.83
2023-02-02T12:51:11.284Z,3.63
2023-02-02T12:54:34.684Z,6.43
2023-02-02T12:57:07.052Z,5.77
2023-02-02T13:00:21.093Z,5.73
2023-02-02T13:03:11.162Z,10.60
2023-02-02T13:06:00.027Z,5.97
2023-02-02T13:08:35.015Z,4.63
2023-02-02T13:11:28.478Z,3.70
2023-02-02T13:14:00.819Z,4.53
2023-02-02T13:16:32.486Z,3.83
2023-02-02T13:19:07.962Z,4.13
2023-02-02T13:21:40.770Z,3.83
2023-02-02T13:24:15.643Z,4.90
2023-02-02T13:26:47.854Z,5.40
2023-02-02T13:29:31.135Z,3.83
2023-02-02T13:32:04.456Z,3.97
2023-02-02T13:34:44.677Z,4.10
2023-02-02T13:37:23.183Z,4.17
2023-02-02T13:39:58.048Z,3.40
2023-02-02T13:42:42.126Z,2.27
2023-02-02T13:45:35.149Z,3.27
2023-02-02T13:48:17.446Z,3.23
2023-02-02T13:51:04.302Z,3.40
2023-02-02T13:54:07.578Z,2.63
2023-02-02T13:56:44.244Z,2.73
2023-02-02T13:59:34.982Z,2.20
2023-02-02T14:02:07.618Z,3.27
2023-02-02T14:04:36.142Z,2.97
2023-02-02T14:07:06.992Z,5.30
2023-02-02T14:09:39.097Z,3.10
2023-02-02T14:12:12.225Z,3.20
2023-02-02T14:14:46.174Z,2.67
2023-02-02T14:17:53.142Z,3.80
2023-02-02T14:20:45.666Z,3.50
2023-02-02T14:23:56.459Z,4.10
2023-02-02T14:26:45.839Z,3.00
2023-02-02T14:29:39.612Z,2.70
2023-02-02T14:32:42.183Z,2.73
2023-02-02T14:35:59.329Z,2.80
2023-02-02T14:39:09.610Z,2.27
2023-02-02T14:42:53.512Z,2.50
2023-02-02T14:45:30.142Z,1.97
2023-02-02T14:48:01.381Z,3.50
2023-02-02T14:50:43.110Z,4.73
2023-02-02T14:53:24.431Z,4.53
2023-02-02T14:56:04.060Z,3.10
2023-02-02T14:58:37.454Z,3.50
2023-02-02T15:01:14.270Z,4.13
2023-02-02T15:03:54.510Z,3.80
2023-02-02T15:06:33.994Z,5.70
2023-02-02T15:09:37.984Z,3.15
2023-02-02T15:12:35.277Z,3.33
2023-02-02T15:15:24.356Z,3.17
2023-02-02T15:18:12.762Z,3.27
2023-02-02T15:20:48.927Z,4.73
2023-02-02T15:23:28.679Z,4.60
2023-02-02T15:26:03.890Z,2.20
2023-02-02T15:28:43.377Z,5.10
2023-02-02T15:31:24.299Z,3.27
2023-02-02T15:33:57.707Z,2.10
2023-02-02T15:36:28.928Z,1.80
2023-02-02T15:39:03.363Z,2.97
2023-02-02T15:41:38.811Z,5.17
2023-02-02T15:44:20.323Z,4.10
2023-02-02T15:46:50.843Z,3.53
2023-02-02T15:49:34.801Z,4.00
2023-02-02T15:52:14.424Z,4.37
2023-02-02T15:54:53.865Z,6.63
2023-02-02T15:57:33.105Z,6.43
2023-02-02T16:00:22.857Z,7.23
2023-02-02T16:02:57.020Z,4.57
2023-02-02T16:05:39.410Z,3.20
2023-02-02T16:08:15.927Z,2.17
2023-02-02T16:10:46.569Z,2.83
2023-02-02T16:13:33.694Z,2.73
2023-02-02T16:16:04.604Z,2.87
2023-02-02T16:18:36.365Z,4.37
2023-02-02T16:21:26.128Z,3.47
2023-02-02T16:23:55.910Z,2.37
2023-02-02T16:26:30.160Z,3.07
2023-02-02T16:28:59.199Z,2.27
2023-02-02T16:31:31.432Z,3.57
2023-02-02T16:34:02.696Z,3.27
2023-02-02T16:36:31.556Z,2.87
2023-02-02T16:39:01.431Z,2.70
2023-02-02T16:41:34.589Z,2.43
2023-02-02T16:44:40.312Z,2.50
2023-02-02T16:47:30.620Z,3.17
2023-02-02T16:50:34.710Z,2.27
2023-02-02T16:53:06.600Z,2.00
2023-02-02T16:55:49.920Z,2.00
2023-02-02T16:58:23.116Z,2.53
2023-02-02T17:01:14.111Z,2.20
2023-02-02T17:03:53.360Z,2.53
2023-02-02T17:06:38.652Z,2.17
2023-02-02T17:09:29.999Z,2.13
2023-02-02T17:12:10.593Z,3.43
2023-02-02T17:14:53.443Z,3.97
2023-02-02T17:17:22.437Z,1.47
2023-02-02T17:19:51.859Z,4.40
2023-02-02T17:22:25.276Z,4.93
2023-02-02T17:24:54.338Z,6.57
2023-02-02T17:27:28.714Z,7.77
2023-02-02T17:29:57.898Z,6.73
2023-02-02T17:32:27.042Z,4.27
2023-02-02T17:34:56.046Z,8.77
2023-02-02T17:37:25.890Z,3.93
2023-02-02T17:39:54.417Z,5.10
2023-02-02T17:42:27.430Z,9.77
2023-02-02T17:44:55.907Z,7.93
2023-02-02T17:47:24.562Z,7.73
2023-02-02T17:49:53.271Z,8.70
2023-02-02T17:52:21.749Z,5.90
2023-02-02T17:54:54.831Z,9.53
2023-02-02T17:57:23.449Z,5.77
2023-02-02T17:59:52.057Z,4.43
2023-02-02T18:02:20.676Z,9.93
2023-02-02T18:04:49.467Z,5.43
2023-02-02T18:07:27.228Z,8.40
2023-02-02T18:09:57.308Z,8.37
2023-02-02T18:12:26.007Z,7.27
2023-02-02T18:14:55.189Z,4.30
2023-02-02T18:17:23.974Z,3.90
2023-02-02T18:19:57.192Z,6.17
2023-02-02T18:22:26.272Z,3.63
2023-02-02T18:24:59.957Z,5.03
2023-02-02T18:27:31.349Z,6.53
2023-02-02T18:30:02.460Z,5.90
2023-02-02T18:32:31.562Z,4.63
2023-02-02T18:35:00.064Z,5.07
2023-02-02T18:37:28.493Z,3.93
2023-02-02T18:39:58.261Z,4.13
2023-02-02T18:42:30.014Z,5.40
2023-02-02T18:44:58.561Z,5.30
2023-02-02T18:47:27.685Z,3.87
2023-02-02T18:49:56.163Z,3.87
2023-02-02T18:52:24.863Z,4.10
2023-02-02T18:54:53.318Z,4.33
2023-02-02T18:57:23.191Z,4.90
2023-02-02T18:59:52.814Z,3.50
2023-02-02T19:02:21.822Z,4.00
2023-02-02T19:05:04.112Z,2.73
2023-02-02T19:07:50.323Z,2.83
2023-02-02T19:10:20.039Z,2.77
2023-02-02T19:12:58.454Z,2.90
2023-02-02T19:15:27.419Z,5.57
2023-02-02T19:17:56.593Z,2.70
2023-02-02T19:20:29.531Z,4.17
2023-02-02T19:23:07.895Z,3.77
2023-02-02T19:25:36.390Z,3.17
2023-02-02T19:28:16.683Z,4.90
2023-02-02T19:30:46.711Z,6.20
2023-02-02T19:33:17.086Z,5.00
2023-02-02T19:35:49.527Z,4.93
2023-02-02T19:38:20.683Z,6.37
2023-02-02T19:40:49.657Z,4.20
2023-02-02T19:43:29.655Z,5.50
2023-02-02T19:46:01.095Z,4.40
2023-02-02T19:48:36.042Z,4.63
2023-02-02T19:51:42.932Z,4.17
2023-02-02T19:54:29.486Z,3.20
2023-02-02T19:57:01.493Z,3.50
2023-02-02T19:59:36.304Z,4.33
2023-02-02T20:02:53.047Z,4.67
2023-02-02T20:05:23.567Z,3.97
2023-02-02T20:08:01.462Z,4.77
2023-02-02T20:10:37.328Z,4.03
2023-02-02T20:13:16.767Z,3.77
2023-02-02T20:15:46.980Z,3.40
2023-02-02T20:18:21.491Z,3.83
2023-02-02T20:20:54.503Z,2.87
2023-02-02T20:23:40.892Z,5.53
2023-02-02T20:26:27.013Z,4.20
2023-02-02T20:28:57.907Z,8.13
2023-02-02T20:31:37.215Z,5.50
2023-02-02T20:34:23.800Z,3.53
2023-02-02T20:36:53.355Z,3.03
2023-02-02T20:39:30.074Z,3.83
2023-02-02T20:41:59.294Z,5.47
2023-02-02T20:44:30.134Z,3.67
2023-02-02T20:47:00.951Z,3.63
2023-02-02T20:49:31.857Z,3.40
2023-02-02T20:52:03.757Z,3.43
2023-02-02T20:54:33.189Z,4.57
2023-02-02T20:57:02.306Z,5.30
2023-02-02T20:59:31.209Z,5.70
2023-02-02T21:02:01.475Z,6.27
2023-02-02T21:04:30.179Z,4.67
2023-02-02T21:06:59.523Z,3.20
2023-02-02T21:09:28.491Z,3.70
2023-02-02T21:11:56.969Z,4.20
2023-02-02T21:14:25.434Z,4.53
2023-02-02T21:17:05.241Z,4.83
2023-02-02T21:19:42.834Z,4.13
2023-02-02T21:22:11.770Z,3.97
2023-02-02T21:24:40.183Z,5.70
2023-02-02T21:27:09.487Z,6.07
2023-02-02T21:29:38.553Z,3.40
2023-02-02T21:32:07.456Z,4.33
2023-02-02T21:34:37.877Z,3.47
2023-02-02T21:37:15.960Z,5.13
2023-02-02T21:39:48.715Z,5.97
2023-02-02T21:42:19.964Z,4.70
2023-02-02T21:44:53.723Z,4.27
2023-02-02T21:47:30.245Z,3.40
2023-02-02T21:50:02.700Z,4.27
2023-02-02T21:52:35.267Z,5.97
2023-02-02T21:55:33.596Z,5.00
2023-02-02T21:58:12.894Z,5.33
2023-02-02T22:00:41.443Z,5.03
2023-02-02T22:03:32.199Z,5.20
2023-02-02T22:06:30.085Z,5.50
2023-02-02T22:09:15.420Z,4.87
2023-02-02T22:11:48.682Z,7.67
2023-02-02T22:14:22.842Z,5.53
2023-02-02T22:16:54.162Z,3.90
2023-02-02T22:19:33.459Z,5.10
2023-02-02T22:22:22.636Z,5.57
2023-02-02T22:25:01.104Z,5.33
2023-02-02T22:27:41.884Z,7.23
2023-02-02T22:30:22.465Z,6.20
2023-02-02T22:32:51.041Z,6.43
2023-02-02T22:35:19.547Z,5.97
2023-02-02T22:37:47.885Z,6.53
2023-02-02T22:40:22.379Z,4.83
2023-02-02T22:42:50.970Z,4.80
2023-02-02T22:45:19.496Z,5.40
2023-02-02T22:47:48.681Z,4.30
2023-02-02T22:50:18.237Z,4.77
2023-02-02T22:52:46.935Z,4.00
2023-02-02T22:55:17.346Z,4.60
2023-02-02T22:57:46.379Z,5.40
2023-02-02T23:00:18.824Z,5.13
2023-02-02T23:02:47.551Z,3.93
2023-02-02T23:05:18.272Z,4.10
2023-02-02T23:07:47.276Z,4.47
2023-02-02T23:10:20.213Z,4.33
2023-02-02T23:12:49.285Z,6.63
2023-02-02T23:15:19.362Z,4.03
2023-02-02T23:17:47.897Z,3.67
2023-02-02T23:20:17.896Z,3.70
2023-02-02T23:22:46.972Z,3.43
2023-02-02T23:25:15.615Z,3.70
2023-02-02T23:27:45.927Z,4.77
2023-02-02T23:30:15.766Z,4.13
2023-02-02T23:32:44.394Z,4.67
2023-02-02T23:35:12.919Z,6.27
2023-02-02T23:37:41.364Z,7.83
2023-02-02T23:40:11.877Z,4.03
2023-02-02T23:42:40.434Z,5.93
2023-02-02T23:45:11.401Z,5.67
2023-02-02T23:47:40.250Z,3.50
2023-02-02T23:50:10.963Z,4.03
2023-02-02T23:52:39.965Z,4.67
2023-02-02T23:55:10.556Z,3.83
2023-02-02T23:57:39.501Z,4.33
